Time;durP1;ratioP1;P1;durP2;ratioP2;P2;SDS_P1;SDS_P2;PMS_P1;PMS_P2;Temp;Humidity;BMP_temperature;BMP_pressure;BME280_temperature;BME280_humidity;BME280_pressure;Samples;Min_cycle;Max_cycle;Signal;HPM_P1;HPM_P2
2022/02/28 00:00:27;;;;;;;8.40;6.83;;;0.90;98.50;;;;;;5049314;28;20204;-62
2022/02/28 00:02:53;;;;;;;8.10;7.22;;;0.90;98.60;;;;;;5031785;28;20488;-62
2022/02/28 00:05:19;;;;;;;9.95;7.55;;;1.40;98.80;;;;;;5048720;28;20235;-62
2022/02/28 00:07:45;;;;;;;12.30;7.60;;;1.60;99.40;;;;;;5054214;28;20583;-62
2022/02/28 00:10:11;;;;;;;11.43;8.00;;;1.50;99.10;;;;;;5054741;28;20181;-64
2022/02/28 00:12:37;;;;;;;10.02;6.90;;;1.50;99.40;;;;;;5052302;28;20503;-62
2022/02/28 00:15:05;;;;;;;11.85;7.32;;;1.00;99.00;;;;;;5055969;28;20190;-61
2022/02/28 00:17:33;;;;;;;9.15;7.30;;;1.50;99.60;;;;;;5047736;28;20192;-63
2022/02/28 00:19:59;;;;;;;8.05;6.95;;;1.60;99.70;;;;;;5051616;28;20835;-61
2022/02/28 00:22:25;;;;;;;8.70;6.85;;;1.60;99.30;;;;;;5045064;28;20222;-64
2022/02/28 00:24:51;;;;;;;8.80;7.30;;;1.50;99.30;;;;;;5052984;28;20189;-62
2022/02/28 00:27:16;;;;;;;11.13;7.33;;;1.60;99.30;;;;;;5036777;28;20212;-62
2022/02/28 00:29:42;;;;;;;9.23;7.33;;;1.20;99.40;;;;;;5042159;28;20214;-62
2022/02/28 00:32:08;;;;;;;8.73;7.20;;;1.30;99.40;;;;;;5060313;28;20307;-62
2022/02/28 00:34:34;;;;;;;9.53;7.50;;;1.10;99.50;;;;;;5048493;28;20923;-62
2022/02/28 00:37:00;;;;;;;10.03;7.27;;;0.90;99.50;;;;;;5053505;28;20819;-61
2022/02/28 00:39:26;;;;;;;12.15;7.50;;;1.30;99.80;;;;;;5058353;28;20188;-62
2022/02/28 00:41:52;;;;;;;8.27;7.15;;;1.30;99.90;;;;;;5049380;28;20212;-61
2022/02/28 00:44:18;;;;;;;8.10;6.80;;;1.10;99.90;;;;;;5047154;28;20742;-62
2022/02/28 00:46:43;;;;;;;10.27;7.50;;;0.60;99.80;;;;;;5049700;28;20185;-62
2022/02/28 00:49:09;;;;;;;10.43;6.73;;;1.30;99.90;;;;;;5045820;28;20194;-62
2022/02/28 00:51:34;;;;;;;9.70;7.60;;;1.10;99.80;;;;;;5056124;28;20221;-62
2022/02/28 00:54:00;;;;;;;9.60;6.93;;;1.60;99.90;;;;;;5053750;28;20176;-62
2022/02/28 00:56:26;;;;;;;8.50;7.20;;;1.10;99.90;;;;;;5055986;28;20642;-61
2022/02/28 00:58:52;;;;;;;9.20;6.90;;;1.00;99.90;;;;;;5045332;28;20468;-62
2022/02/28 01:01:17;;;;;;;8.77;7.37;;;0.90;99.90;;;;;;5050002;28;20244;-62
2022/02/28 01:03:43;;;;;;;9.10;7.00;;;1.00;99.90;;;;;;5053141;28;20444;-62
2022/02/28 01:06:09;;;;;;;9.30;7.20;;;0.60;99.90;;;;;;5048876;28;20239;-62
2022/02/28 01:08:34;;;;;;;10.50;7.47;;;0.90;99.90;;;;;;5051554;28;20651;-62
2022/02/28 01:11:00;;;;;;;11.23;7.20;;;1.10;99.90;;;;;;5050639;28;20217;-62
2022/02/28 01:13:26;;;;;;;11.80;6.80;;;1.10;99.90;;;;;;5046641;28;20183;-62
2022/02/28 01:15:52;;;;;;;9.90;6.90;;;1.10;99.90;;;;;;5049868;28;20490;-62
2022/02/28 01:18:17;;;;;;;8.70;6.80;;;1.10;99.90;;;;;;5041426;28;20178;-61
2022/02/28 01:20:43;;;;;;;9.03;6.83;;;1.20;99.90;;;;;;5048178;28;20952;-62
2022/02/28 01:23:09;;;;;;;10.68;7.22;;;0.90;99.90;;;;;;5048492;28;20201;-62
2022/02/28 01:25:35;;;;;;;12.67;7.50;;;1.20;99.90;;;;;;5056951;28;20178;-62
2022/02/28 01:28:00;;;;;;;8.70;6.63;;;0.50;99.90;;;;;;5042246;28;20178;-62
2022/02/28 01:30:26;;;;;;;10.57;7.23;;;0.90;99.90;;;;;;5049492;28;20186;-62
2022/02/28 01:32:52;;;;;;;8.47;6.97;;;0.90;99.90;;;;;;5047256;28;20197;-61
2022/02/28 01:35:17;;;;;;;9.10;6.93;;;0.90;99.90;;;;;;5024889;28;20196;-63
2022/02/28 01:37:43;;;;;;;9.13;7.40;;;0.30;99.90;;;;;;5055134;28;20248;-62
2022/02/28 01:40:12;;;;;;;10.13;7.67;;;0.70;99.90;;;;;;5034137;28;20259;-62
2022/02/28 01:42:39;;;;;;;9.43;6.85;;;0.60;99.90;;;;;;5055816;28;20220;-62
2022/02/28 01:45:09;;;;;;;10.88;7.90;;;0.10;99.90;;;;;;5044513;28;20272;-61
2022/02/28 01:47:36;;;;;;;9.27;7.18;;;1.00;99.90;;;;;;5051160;28;20643;-62
2022/02/28 01:50:02;;;;;;;9.25;6.50;;;0.80;99.90;;;;;;5041136;28;20612;-61
2022/02/28 01:52:27;;;;;;;8.98;6.82;;;0.60;99.90;;;;;;5048461;28;20714;-62
2022/02/28 01:54:53;;;;;;;7.20;6.40;;;0.40;99.90;;;;;;5050440;28;20236;-62
2022/02/28 01:57:19;;;;;;;10.53;7.60;;;0.80;99.90;;;;;;5044976;28;20347;-62
2022/02/28 01:59:44;;;;;;;9.17;6.73;;;0.70;99.90;;;;;;5041703;28;20182;-61
2022/02/28 02:02:10;;;;;;;8.90;6.47;;;0.20;99.90;;;;;;5049404;28;20205;-62
2022/02/28 02:04:36;;;;;;;7.47;6.67;;;0.80;99.90;;;;;;5025408;28;20185;-62
2022/02/28 02:07:02;;;;;;;9.60;7.50;;;0.50;99.90;;;;;;5050467;28;20192;-62
2022/02/28 02:09:28;;;;;;;8.45;6.60;;;0.90;99.90;;;;;;5057587;28;20235;-62
2022/02/28 02:11:54;;;;;;;9.63;7.23;;;0.20;99.90;;;;;;5056276;28;20216;-62
2022/02/28 02:14:20;;;;;;;8.30;6.57;;;1.00;99.90;;;;;;5054660;28;21030;-62
2022/02/28 02:16:46;;;;;;;11.47;6.63;;;0.10;99.90;;;;;;5044516;28;20181;-61
2022/02/28 02:19:11;;;;;;;8.57;6.88;;;0.20;99.90;;;;;;5045015;28;20189;-62
2022/02/28 02:21:37;;;;;;;7.77;6.80;;;0.80;99.90;;;;;;5043720;28;20660;-62
2022/02/28 02:24:02;;;;;;;10.13;6.70;;;0.50;99.90;;;;;;5048709;28;20189;-62
2022/02/28 02:26:28;;;;;;;9.90;7.40;;;0.70;99.90;;;;;;5046651;28;20235;-62
2022/02/28 02:28:54;;;;;;;6.97;5.60;;;-0.10;99.90;;;;;;5028543;28;20556;-62
2022/02/28 02:31:19;;;;;;;9.43;6.60;;;0.20;99.90;;;;;;5046346;28;20221;-62
2022/02/28 02:33:45;;;;;;;7.83;6.93;;;-0.20;99.90;;;;;;5045659;28;20216;-62
2022/02/28 02:36:12;;;;;;;9.15;7.38;;;-0.30;99.90;;;;;;5047492;28;20177;-62
2022/02/28 02:38:39;;;;;;;10.10;6.97;;;0.80;99.90;;;;;;5053653;28;20399;-62
2022/02/28 02:41:07;;;;;;;8.95;7.60;;;0.30;99.90;;;;;;5056629;28;20185;-62
2022/02/28 02:43:33;;;;;;;9.88;7.50;;;0.20;99.90;;;;;;5049035;28;20189;-62
2022/02/28 02:45:59;;;;;;;12.00;8.18;;;0.50;99.90;;;;;;5056649;28;20191;-62
2022/02/28 02:48:26;;;;;;;11.83;8.23;;;0.40;99.90;;;;;;5043274;28;20195;-62
2022/02/28 02:50:53;;;;;;;8.15;6.47;;;0.30;99.90;;;;;;5046649;28;20245;-62
2022/02/28 02:53:19;;;;;;;11.15;8.00;;;0.50;99.90;;;;;;5052151;28;20722;-62
2022/02/28 02:55:45;;;;;;;9.80;6.85;;;0.40;99.90;;;;;;5059742;28;20189;-62
2022/02/28 02:58:13;;;;;;;8.82;6.55;;;0.60;99.90;;;;;;5039677;28;20545;-61
2022/02/28 03:00:41;;;;;;;7.95;6.82;;;0.50;99.90;;;;;;5049854;28;20179;-62
2022/02/28 03:03:11;;;;;;;7.43;6.57;;;0.50;99.90;;;;;;5049313;28;20211;-61
2022/02/28 03:05:37;;;;;;;7.78;6.30;;;0.70;99.90;;;;;;5048005;28;20182;-62
2022/02/28 03:08:04;;;;;;;8.60;6.40;;;0.50;99.90;;;;;;5051032;28;20182;-62
2022/02/28 03:10:30;;;;;;;9.13;7.28;;;0.30;99.90;;;;;;5054634;28;20190;-62
2022/02/28 03:12:55;;;;;;;8.73;6.55;;;0.30;99.90;;;;;;5077951;22;20695;-86
2022/02/28 03:15:21;;;;;;;8.83;6.70;;;0.10;99.90;;;;;;5063089;28;20213;-86
2022/02/28 03:17:46;;;;;;;7.93;6.60;;;0.40;99.90;;;;;;5062944;28;20181;-85
2022/02/28 03:20:12;;;;;;;9.93;7.70;;;0.40;99.90;;;;;;5053297;28;20268;-84
2022/02/28 03:22:38;;;;;;;8.87;6.77;;;0.20;99.90;;;;;;5047810;28;20243;-85
2022/02/28 03:25:05;;;;;;;7.83;6.57;;;0.20;99.90;;;;;;5052673;28;20192;-84
2022/02/28 03:27:33;;;;;;;10.75;7.07;;;0.00;99.90;;;;;;5050706;28;20191;-84
2022/02/28 03:29:58;;;;;;;8.70;6.25;;;0.10;99.90;;;;;;5054016;28;20181;-84
2022/02/28 03:32:24;;;;;;;10.33;7.93;;;0.30;99.90;;;;;;5046959;28;20498;-85
2022/02/28 03:34:49;;;;;;;9.30;7.20;;;0.20;99.90;;;;;;5062199;28;20243;-84
2022/02/28 03:37:15;;;;;;;10.10;8.17;;;0.60;99.90;;;;;;5047731;28;20243;-87
2022/02/28 03:39:41;;;;;;;9.33;6.33;;;0.10;99.90;;;;;;5054093;28;20177;-87
2022/02/28 03:42:06;;;;;;;9.00;6.47;;;-0.30;99.90;;;;;;5050188;28;20457;-86
2022/02/28 03:44:32;;;;;;;9.33;6.10;;;0.00;99.90;;;;;;5047112;28;20787;-87
2022/02/28 03:46:58;;;;;;;11.77;7.07;;;0.10;99.90;;;;;;5054412;28;20236;-85
2022/02/28 03:49:23;;;;;;;9.20;7.10;;;0.00;99.90;;;;;;5063695;28;20190;-86
2022/02/28 03:51:49;;;;;;;10.37;7.83;;;0.20;99.90;;;;;;5049884;28;20209;-86
2022/02/28 03:54:15;;;;;;;10.33;7.20;;;0.30;99.90;;;;;;5055544;28;20187;-86
2022/02/28 03:56:42;;;;;;;9.10;7.22;;;0.00;99.90;;;;;;5052815;28;20278;-84
2022/02/28 03:59:09;;;;;;;11.82;7.55;;;0.00;99.90;;;;;;5046668;28;20188;-86
2022/02/28 04:01:35;;;;;;;7.90;6.53;;;0.00;99.90;;;;;;5048080;28;20186;-85
2022/02/28 04:04:01;;;;;;;8.00;6.13;;;-0.20;99.90;;;;;;5043509;28;20198;-85
2022/02/28 04:06:29;;;;;;;10.48;7.20;;;0.00;99.90;;;;;;5042231;28;20452;-85
2022/02/28 04:08:55;;;;;;;10.68;7.95;;;-0.20;99.90;;;;;;5050622;28;20269;-84
2022/02/28 04:11:20;;;;;;;9.50;7.47;;;-0.70;99.90;;;;;;5052332;28;20208;-84
2022/02/28 04:13:46;;;;;;;12.40;7.67;;;0.00;99.90;;;;;;5061237;28;20202;-85
2022/02/28 04:16:12;;;;;;;10.07;7.23;;;0.00;99.90;;;;;;5050896;28;20177;-84
2022/02/28 04:18:37;;;;;;;10.60;8.07;;;0.30;99.90;;;;;;5049064;28;20212;-84
2022/02/28 04:21:03;;;;;;;8.50;6.93;;;-0.30;99.90;;;;;;5049814;28;20258;-85
2022/02/28 04:23:28;;;;;;;10.30;6.77;;;-0.50;99.90;;;;;;5052333;28;20241;-84
2022/02/28 04:25:54;;;;;;;7.77;6.87;;;-0.40;99.90;;;;;;5050827;28;20192;-85
2022/02/28 04:28:20;;;;;;;7.90;6.10;;;-0.10;99.90;;;;;;5047146;28;20465;-84
2022/02/28 04:30:45;;;;;;;11.03;7.53;;;0.00;99.90;;;;;;5050429;28;20366;-86
2022/02/28 04:33:11;;;;;;;10.77;7.10;;;-0.10;99.90;;;;;;5049896;28;20283;-86
2022/02/28 04:35:37;;;;;;;12.40;7.57;;;0.40;99.90;;;;;;5049301;28;20435;-84
2022/02/28 04:38:05;;;;;;;11.30;7.90;;;-0.10;99.90;;;;;;5048295;28;20189;-86
2022/02/28 04:40:31;;;;;;;9.98;8.10;;;0.00;99.90;;;;;;5048580;28;20573;-86
2022/02/28 04:42:57;;;;;;;8.20;6.70;;;-0.20;99.90;;;;;;5053356;28;20585;-85
2022/02/28 04:45:23;;;;;;;12.70;7.80;;;0.20;99.90;;;;;;5066442;28;20199;-86
2022/02/28 04:47:48;;;;;;;12.77;8.10;;;0.20;99.90;;;;;;5050655;28;20185;-87
2022/02/28 04:50:14;;;;;;;10.70;7.23;;;0.20;99.90;;;;;;5039642;28;20216;-87
2022/02/28 04:52:39;;;;;;;8.60;7.00;;;-0.60;99.90;;;;;;5052569;28;20233;-86
2022/02/28 04:55:06;;;;;;;10.07;7.20;;;-0.40;99.90;;;;;;5052140;28;20649;-85
2022/02/28 04:57:40;;;;;;;12.07;8.05;;;-0.50;99.90;;;;;;5060946;28;20191;-87
2022/02/28 05:00:06;;;;;;;9.23;6.97;;;-0.20;99.90;;;;;;5044279;28;20173;-85
2022/02/28 05:02:32;;;;;;;9.45;6.97;;;-0.50;99.90;;;;;;5048288;28;20201;-86
2022/02/28 05:04:58;;;;;;;11.60;7.30;;;-0.40;99.90;;;;;;5040196;28;20192;-85
2022/02/28 05:07:23;;;;;;;10.60;7.70;;;-0.50;99.90;;;;;;5045352;28;20208;-85
2022/02/28 05:09:49;;;;;;;12.30;7.43;;;-0.80;99.90;;;;;;5051250;28;20188;-84
2022/02/28 05:12:14;;;;;;;10.20;6.93;;;-0.70;99.90;;;;;;5058214;28;20233;-85
2022/02/28 05:14:40;;;;;;;13.77;8.03;;;-0.60;99.90;;;;;;5075092;28;20235;-84
2022/02/28 05:17:05;;;;;;;15.60;7.53;;;-0.10;99.90;;;;;;5048437;28;20744;-85
2022/02/28 05:19:31;;;;;;;13.47;10.00;;;-0.20;99.90;;;;;;5040752;28;20182;-85
2022/02/28 05:21:57;;;;;;;9.23;7.17;;;0.10;99.90;;;;;;5048147;28;20250;-85
2022/02/28 05:24:23;;;;;;;10.55;7.45;;;-0.60;99.90;;;;;;5067453;28;20183;-85
2022/02/28 05:26:49;;;;;;;8.90;6.80;;;-0.50;99.90;;;;;;5068710;28;20186;-83
2022/02/28 05:29:15;;;;;;;8.50;6.47;;;-0.40;99.90;;;;;;5061249;28;20173;-84
2022/02/28 05:31:40;;;;;;;10.70;8.23;;;-0.50;99.90;;;;;;5045817;28;20202;-85
2022/02/28 05:34:06;;;;;;;9.57;7.77;;;-0.30;99.90;;;;;;5043680;28;20594;-84
2022/02/28 05:36:31;;;;;;;11.37;7.63;;;-0.30;99.90;;;;;;5060083;28;20185;-85
2022/02/28 05:38:57;;;;;;;13.30;8.50;;;-0.30;99.90;;;;;;5066400;28;20189;-84
2022/02/28 05:41:22;;;;;;;11.53;8.20;;;0.00;99.90;;;;;;5047141;28;20210;-83
2022/02/28 05:43:48;;;;;;;12.80;8.23;;;-0.30;99.90;;;;;;5046602;28;20216;-84
2022/02/28 05:46:13;;;;;;;17.40;8.83;;;-0.40;99.90;;;;;;5044950;28;20218;-84
2022/02/28 05:48:39;;;;;;;11.00;8.03;;;-0.60;99.90;;;;;;5043885;28;20770;-84
2022/02/28 05:51:05;;;;;;;11.23;8.00;;;-0.60;99.90;;;;;;5066123;28;20220;-84
2022/02/28 05:53:31;;;;;;;8.67;7.77;;;-0.50;99.90;;;;;;5052118;28;20211;-83
2022/02/28 05:55:56;;;;;;;11.18;7.80;;;-0.60;99.90;;;;;;5064858;28;20634;-84
2022/02/28 05:58:22;;;;;;;10.27;7.90;;;-0.80;99.90;;;;;;5036254;28;20181;-85
2022/02/28 06:00:48;;;;;;;10.17;7.90;;;-0.70;99.90;;;;;;5050837;28;20645;-83
2022/02/28 06:03:13;;;;;;;12.20;7.93;;;-1.00;99.90;;;;;;5046060;28;20603;-86
2022/02/28 06:05:39;;;;;;;8.40;6.67;;;-0.40;99.90;;;;;;5048144;28;20642;-86
2022/02/28 06:08:04;;;;;;;13.97;9.50;;;-0.70;99.90;;;;;;5050973;28;20604;-86
2022/02/28 06:10:30;;;;;;;12.43;8.53;;;-0.10;99.90;;;;;;5051276;28;20178;-81
2022/02/28 06:12:55;;;;;;;16.07;8.83;;;0.10;99.90;;;;;;5045265;28;20696;-82
2022/02/28 06:15:21;;;;;;;16.90;8.73;;;0.10;99.90;;;;;;5066087;28;20177;-84
2022/02/28 06:17:46;;;;;;;11.23;7.67;;;0.40;99.90;;;;;;5066928;28;20645;-87
2022/02/28 06:20:12;;;;;;;11.70;8.20;;;0.10;99.90;;;;;;5046862;28;20748;-92
2022/02/28 06:22:40;;;;;;;12.33;7.87;;;0.00;99.90;;;;;;5048781;28;20818;-95
2022/02/28 06:25:36;;;;;;;;;;;;;;;;;;;;;
2022/02/28 06:28:03;;;;;;;13.30;9.27;;;-0.60;99.90;;;;;;5056840;28;20199;-90
2022/02/28 06:30:29;;;;;;;10.73;8.25;;;-0.60;99.90;;;;;;5049439;28;20188;-90
2022/02/28 06:32:55;;;;;;;9.47;7.50;;;;;;;;;;5053552;28;20217;-89
2022/02/28 06:35:20;;;;;;;14.73;10.00;;;-0.60;99.90;;;;;;5043435;28;20189;-83
2022/02/28 06:37:46;;;;;;;12.40;9.03;;;;;;;;;;5049179;28;20177;-89
2022/02/28 06:40:13;;;;;;;13.00;9.45;;;;;;;;;;5056418;28;20181;-89
2022/02/28 06:42:39;;;;;;;11.55;8.60;;;-0.70;99.90;;;;;;5061340;28;20563;-89
2022/02/28 06:45:05;;;;;;;10.10;7.90;;;-1.10;99.90;;;;;;5060488;28;20528;-89
2022/02/28 06:47:31;;;;;;;14.82;8.98;;;-0.40;99.90;;;;;;5052182;28;20189;-90
2022/02/28 06:49:56;;;;;;;13.97;8.73;;;-0.50;99.90;;;;;;5045648;28;20242;-89
2022/02/28 06:52:24;;;;;;;13.03;9.70;;;0.60;99.90;;;;;;5052178;28;20683;-88
2022/02/28 06:54:53;;;;;;;14.48;8.82;;;-0.80;99.90;;;;;;5055542;28;20182;-89
2022/02/28 06:57:19;;;;;;;12.68;9.50;;;-1.10;99.90;;;;;;5066593;28;20203;-89
2022/02/28 06:59:44;;;;;;;15.70;10.03;;;-0.70;99.90;;;;;;5051954;28;20194;-80
2022/02/28 07:02:10;;;;;;;15.20;10.30;;;0.20;99.90;;;;;;5052404;28;20464;-92
2022/02/28 07:04:35;;;;;;;12.20;9.00;;;-0.10;99.90;;;;;;5071263;28;20180;-96
2022/02/28 07:07:01;;;;;;;12.00;9.30;;;0.10;99.90;;;;;;5072879;28;20276;-96
2022/02/28 07:09:44;;;;;;;15.98;10.55;;;0.70;99.90;;;;;;5079776;28;20196;-96
2022/02/28 07:12:18;;;;;;;13.73;10.70;;;-0.80;99.90;;;;;;5066374;28;20205;-94
2022/02/28 07:19:22;;;;;;;13.80;9.35;;;0.30;99.90;;;;;;4968652;28;20195;-93
2022/02/28 07:21:47;;;;;;;15.75;10.35;;;0.20;99.90;;;;;;5000920;22;20224;-60
2022/02/28 07:24:12;;;;;;;14.47;10.63;;;0.30;99.90;;;;;;5066894;28;20325;-61
2022/02/28 07:26:38;;;;;;;16.63;11.03;;;0.30;99.90;;;;;;5061435;28;20177;-69
2022/02/28 07:29:03;;;;;;;18.90;10.87;;;-0.30;99.90;;;;;;5052300;28;20181;-69
2022/02/28 07:31:29;;;;;;;17.67;11.37;;;0.40;99.90;;;;;;5068707;28;20591;-60
2022/02/28 07:33:55;;;;;;;19.10;11.83;;;0.50;99.90;;;;;;5063393;28;20247;-59
2022/02/28 07:36:20;;;;;;;23.33;13.83;;;0.50;99.90;;;;;;5068484;28;20184;-60
2022/02/28 07:38:46;;;;;;;16.20;11.80;;;0.50;99.90;;;;;;5066079;28;20196;-61
2022/02/28 07:41:12;;;;;;;16.40;11.53;;;0.90;99.90;;;;;;5067464;28;20200;-61
2022/02/28 07:43:38;;;;;;;15.50;11.73;;;0.30;99.90;;;;;;5062840;28;20196;-61
2022/02/28 07:46:03;;;;;;;14.70;12.23;;;1.00;99.90;;;;;;5067770;28;20182;-61
2022/02/28 07:48:29;;;;;;;14.57;11.40;;;1.00;99.90;;;;;;5064643;28;20585;-59
2022/02/28 07:50:55;;;;;;;16.03;10.73;;;0.90;99.90;;;;;;5051898;28;20447;-60
2022/02/28 07:53:21;;;;;;;19.50;10.60;;;0.90;99.90;;;;;;5067962;28;20170;-59
2022/02/28 07:55:47;;;;;;;17.25;11.60;;;1.20;99.90;;;;;;5068140;28;20178;-58
2022/02/28 07:58:12;;;;;;;20.17;11.53;;;1.50;99.90;;;;;;5069196;28;20383;-59
2022/02/28 08:00:38;;;;;;;15.33;10.73;;;1.80;99.90;;;;;;5068444;28;20181;-60
2022/02/28 08:03:04;;;;;;;14.93;11.25;;;1.90;99.90;;;;;;5070991;28;20521;-59
2022/02/28 08:05:30;;;;;;;12.87;10.20;;;1.40;99.90;;;;;;5048383;28;20197;-59
2022/02/28 08:07:55;;;;;;;17.80;12.60;;;2.40;99.90;;;;;;5069541;28;20603;-58
2022/02/28 08:10:22;;;;;;;14.67;11.33;;;1.60;99.90;;;;;;5072357;28;20195;-58
2022/02/28 08:12:48;;;;;;;19.45;11.98;;;2.40;99.90;;;;;;5067400;28;20346;-59
2022/02/28 08:15:14;;;;;;;14.80;11.25;;;2.70;99.90;;;;;;5069216;28;20263;-59
2022/02/28 08:17:39;;;;;;;15.33;12.10;;;2.60;99.60;;;;;;5069443;28;20753;-59
2022/02/28 08:20:06;;;;;;;15.63;11.37;;;2.70;98.60;;;;;;5065285;28;20488;-60
2022/02/28 08:22:32;;;;;;;20.42;13.13;;;2.70;98.30;;;;;;5064648;28;20313;-58
2022/02/28 08:24:58;;;;;;;19.17;12.17;;;3.00;98.50;;;;;;5069078;28;20551;-59
2022/02/28 08:27:25;;;;;;;15.20;11.60;;;3.00;98.30;;;;;;5066327;28;20192;-59
2022/02/28 08:29:51;;;;;;;21.13;12.80;;;3.00;98.30;;;;;;5071533;28;20568;-59
2022/02/28 08:32:16;;;;;;;15.20;12.23;;;2.90;97.70;;;;;;5069486;28;20292;-60
2022/02/28 08:34:42;;;;;;;11.43;9.80;;;3.10;97.30;;;;;;5058956;28;20174;-61
2022/02/28 08:37:08;;;;;;;15.27;12.03;;;3.00;96.90;;;;;;5068556;28;20365;-60
2022/02/28 08:39:34;;;;;;;16.08;12.40;;;2.70;96.40;;;;;;5065644;28;20806;-62
2022/02/28 08:42:00;;;;;;;17.63;12.60;;;2.90;96.30;;;;;;5064618;28;20208;-60
2022/02/28 08:44:26;;;;;;;15.60;11.27;;;3.60;96.10;;;;;;5062019;28;20206;-60
2022/02/28 08:46:51;;;;;;;15.63;12.33;;;3.40;95.80;;;;;;5072103;28;20442;-61
2022/02/28 08:49:17;;;;;;;16.70;12.07;;;3.90;95.80;;;;;;5059405;28;20189;-60
2022/02/28 08:51:46;;;;;;;17.97;12.73;;;4.20;95.90;;;;;;5047179;28;20208;-60
2022/02/28 08:54:12;;;;;;;16.73;12.15;;;4.20;95.20;;;;;;5063607;28;20536;-60
2022/02/28 08:56:38;;;;;;;18.80;12.23;;;4.80;94.80;;;;;;5068136;28;20228;-60
2022/02/28 08:59:04;;;;;;;15.63;12.10;;;6.60;93.50;;;;;;5059098;28;20427;-59
2022/02/28 09:01:29;;;;;;;16.30;12.30;;;8.70;87.60;;;;;;5072553;28;20671;-59
2022/02/28 09:03:55;;;;;;;18.20;12.57;;;9.70;78.80;;;;;;5059549;28;20534;-60
2022/02/28 09:06:21;;;;;;;13.03;11.50;;;10.00;75.00;;;;;;5043787;28;20260;-59
2022/02/28 09:08:46;;;;;;;15.13;11.03;;;10.60;75.00;;;;;;5066755;28;20242;-59
2022/02/28 09:11:12;;;;;;;16.87;12.97;;;12.50;68.00;;;;;;5056890;28;20231;-61
2022/02/28 09:13:38;;;;;;;13.63;11.93;;;13.50;62.80;;;;;;5068495;28;20198;-57
2022/02/28 09:16:04;;;;;;;16.60;12.80;;;14.10;59.50;;;;;;5068430;28;20180;-58
2022/02/28 09:18:30;;;;;;;14.95;13.45;;;14.30;56.20;;;;;;5066988;28;20185;-57
2022/02/28 09:20:56;;;;;;;14.70;11.57;;;13.50;56.10;;;;;;5064545;28;20268;-60
2022/02/28 09:23:22;;;;;;;11.18;9.40;;;12.70;57.20;;;;;;5062956;28;20843;-61
2022/02/28 09:25:47;;;;;;;13.47;8.83;;;11.50;56.30;;;;;;5063012;28;20207;-61
2022/02/28 09:28:13;;;;;;;9.30;7.90;;;11.20;58.40;;;;;;5058913;28;20187;-65
2022/02/28 09:30:39;;;;;;;10.13;9.00;;;10.80;59.00;;;;;;5062799;28;20830;-65
2022/02/28 09:33:05;;;;;;;12.33;9.63;;;10.10;58.80;;;;;;5062956;28;20619;-60
2022/02/28 09:35:30;;;;;;;13.60;10.90;;;10.90;58.60;;;;;;5064452;28;20544;-62
2022/02/28 09:37:56;;;;;;;12.27;10.43;;;11.60;57.80;;;;;;5067401;28;20188;-62
2022/02/28 09:40:30;;;;;;;13.73;12.17;;;12.20;57.20;;;;;;5067184;28;20181;-59
2022/02/28 09:42:59;;;;;;;13.25;11.93;;;12.50;58.00;;;;;;5052187;28;20500;-60
2022/02/28 09:45:26;;;;;;;13.25;11.93;;;13.60;57.00;;;;;;5053950;28;20193;-63
2022/02/28 09:47:54;;;;;;;15.63;12.75;;;13.40;56.70;;;;;;5066625;28;20219;-63
2022/02/28 09:50:20;;;;;;;13.90;10.98;;;14.30;54.90;;;;;;5039023;28;20244;-60
2022/02/28 09:52:46;;;;;;;14.27;11.50;;;15.00;53.20;;;;;;5052230;28;20220;-60
2022/02/28 09:55:14;;;;;;;9.70;8.70;;;14.80;51.10;;;;;;5067640;28;20268;-60
2022/02/28 09:57:47;;;;;;;9.15;8.25;;;15.10;49.30;;;;;;5067830;28;20189;-60
2022/02/28 10:00:21;;;;;;;9.95;9.00;;;15.20;48.10;;;;;;5062163;28;20666;-59
2022/02/28 10:02:49;;;;;;;9.20;8.30;;;15.30;47.70;;;;;;5061245;28;20205;-60
2022/02/28 10:05:16;;;;;;;10.00;9.00;;;15.40;47.70;;;;;;5047446;28;20186;-60
2022/02/28 10:07:52;;;;;;;9.75;8.70;;;15.70;47.30;;;;;;5062599;28;20709;-61
2022/02/28 10:10:18;;;;;;;9.05;8.18;;;14.90;46.90;;;;;;5068226;28;20188;-60
2022/02/28 10:12:44;;;;;;;9.90;8.90;;;14.60;47.40;;;;;;5057545;28;20221;-60
2022/02/28 10:15:17;;;;;;;10.60;8.70;;;15.40;46.90;;;;;;5067128;28;20284;-59
2022/02/28 10:17:50;;;;;;;10.07;8.15;;;15.20;46.20;;;;;;5062425;28;20189;-61
2022/02/28 10:20:23;;;;;;;8.90;8.00;;;15.60;45.30;;;;;;5058447;28;20196;-62
2022/02/28 10:23:07;;;;;;;9.20;8.30;;;15.00;45.30;;;;;;5066928;28;20323;-61
2022/02/28 10:25:44;;;;;;;9.35;8.00;;;14.60;45.30;;;;;;5061280;28;20643;-59
2022/02/28 10:28:20;;;;;;;9.02;8.15;;;15.60;45.50;;;;;;5058024;28;20182;-59
2022/02/28 10:31:05;;;;;;;10.20;9.07;;;15.90;44.40;;;;;;5066141;28;20181;-61
2022/02/28 10:33:34;;;;;;;9.80;8.90;;;16.00;42.60;;;;;;5066357;28;20185;-61
2022/02/28 10:36:15;;;;;;;9.80;8.45;;;16.10;43.00;;;;;;5053843;28;20189;-60
2022/02/28 10:38:52;;;;;;;10.00;8.82;;;15.10;44.10;;;;;;5063832;28;20188;-60
2022/02/28 10:41:32;;;;;;;9.93;8.93;;;14.30;44.90;;;;;;5061435;28;20233;-60
2022/02/28 10:44:00;;;;;;;11.13;8.40;;;14.10;45.10;;;;;;5060392;28;20663;-60
2022/02/28 10:46:32;;;;;;;9.65;8.45;;;14.60;45.50;;;;;;5058328;28;20203;-60
2022/02/28 10:49:19;;;;;;;10.00;9.00;;;14.90;45.20;;;;;;5059493;28;20204;-61
2022/02/28 10:52:02;;;;;;;9.55;8.50;;;15.00;44.90;;;;;;5067318;28;20217;-61
2022/02/28 10:54:33;;;;;;;9.55;8.57;;;14.60;45.50;;;;;;5060441;28;20194;-67
2022/02/28 10:57:20;;;;;;;10.50;9.40;;;14.90;45.00;;;;;;5052566;28;20426;-63
2022/02/28 10:59:54;;;;;;;10.73;9.60;;;14.50;46.10;;;;;;5042795;28;20174;-68
2022/02/28 11:02:27;;;;;;;10.88;9.25;;;15.00;45.40;;;;;;5061196;28;20212;-63
2022/02/28 11:05:07;;;;;;;12.23;9.80;;;14.50;45.30;;;;;;5068488;28;20196;-62
2022/02/28 11:07:47;;;;;;;9.98;8.95;;;14.80;45.90;;;;;;5063336;28;20203;-67
2022/02/28 11:10:15;;;;;;;13.70;10.23;;;14.40;45.40;;;;;;5071109;28;20180;-62
2022/02/28 11:12:41;;;;;;;12.27;10.18;;;14.30;46.40;;;;;;5069708;28;20415;-65
2022/02/28 11:15:10;;;;;;;11.60;10.40;;;14.60;45.60;;;;;;5064683;28;20211;-64
2022/02/28 11:17:43;;;;;;;12.13;10.30;;;14.90;45.00;;;;;;5063468;28;20685;-62
2022/02/28 11:20:11;;;;;;;11.45;10.25;;;16.20;44.40;;;;;;5053802;28;20180;-65
2022/02/28 11:22:39;;;;;;;11.82;9.95;;;15.10;44.10;;;;;;5071315;28;20676;-62
2022/02/28 11:25:09;;;;;;;11.52;10.20;;;15.50;43.90;;;;;;5071926;28;20188;-62
2022/02/28 11:27:36;;;;;;;12.32;10.43;;;15.90;43.40;;;;;;5070638;28;20866;-62
2022/02/28 11:30:09;;;;;;;11.60;10.38;;;15.00;44.10;;;;;;5062676;28;20834;-62
2022/02/28 11:32:36;;;;;;;10.70;9.60;;;15.10;45.00;;;;;;5060221;28;20578;-62
2022/02/28 11:35:36;;;;;;;11.75;9.70;;;14.90;45.30;;;;;;5053159;28;20208;-65
2022/02/28 11:38:15;;;;;;;10.95;9.85;;;15.40;44.20;;;;;;5072825;28;20181;-62
2022/02/28 11:40:45;;;;;;;11.43;9.95;;;15.00;44.30;;;;;;5072312;28;20242;-66
2022/02/28 11:43:13;;;;;;;11.13;10.10;;;14.90;43.80;;;;;;5062973;28;20228;-63
2022/02/28 11:46:01;;;;;;;10.63;9.63;;;15.10;44.00;;;;;;5067387;28;20184;-63
2022/02/28 11:48:50;;;;;;;10.98;9.77;;;15.00;43.50;;;;;;5066240;28;20203;-65
2022/02/28 11:51:30;;;;;;;10.60;9.50;;;15.10;43.30;;;;;;5065878;28;20217;-63
2022/02/28 11:54:00;;;;;;;12.63;10.18;;;15.10;43.70;;;;;;5061642;28;20447;-61
2022/02/28 11:56:30;;;;;;;10.68;8.85;;;15.20;42.90;;;;;;5065952;28;20181;-63
2022/02/28 11:58:58;;;;;;;11.88;10.07;;;15.00;43.10;;;;;;5053343;28;20215;-62
2022/02/28 12:01:36;;;;;;;10.98;9.77;;;14.60;43.00;;;;;;5064742;28;20201;-63
2022/02/28 12:04:07;;;;;;;10.05;9.05;;;14.70;43.50;;;;;;5063598;28;20181;-62
2022/02/28 12:06:52;;;;;;;10.88;9.77;;;14.40;43.30;;;;;;5062998;28;20661;-63
2022/02/28 12:09:33;;;;;;;10.10;8.93;;;14.00;43.50;;;;;;5069278;28;20193;-64
2022/02/28 12:12:33;;;;;;;9.02;8.07;;;13.50;44.00;;;;;;5053867;28;20338;-63
2022/02/28 12:14:59;;;;;;;10.20;8.40;;;13.40;43.70;;;;;;5068858;28;20250;-61
2022/02/28 12:17:32;;;;;;;8.70;7.55;;;13.00;44.10;;;;;;5063692;28;20218;-63
2022/02/28 12:20:18;;;;;;;10.02;8.52;;;13.00;44.50;;;;;;5058848;28;20200;-63
2022/02/28 12:22:53;;;;;;;10.15;8.75;;;12.90;42.80;;;;;;5061112;28;20218;-60
2022/02/28 12:25:57;;;;;;;11.50;8.43;;;12.30;43.50;;;;;;5066554;28;20198;-62
2022/02/28 12:28:34;;;;;;;14.50;8.93;;;12.40;44.10;;;;;;5058286;28;20204;-61
2022/02/28 12:31:02;;;;;;;10.02;8.00;;;12.30;43.90;;;;;;5065408;28;20188;-61
2022/02/28 12:33:28;;;;;;;7.95;7.15;;;12.30;44.40;;;;;;5064076;28;20193;-61
2022/02/28 12:35:59;;;;;;;8.53;7.57;;;11.80;43.40;;;;;;5073618;28;20233;-61
2022/02/28 12:38:27;;;;;;;8.50;7.70;;;12.30;43.10;;;;;;5068600;28;20190;-59
2022/02/28 12:40:56;;;;;;;9.20;7.95;;;12.30;44.30;;;;;;5067802;28;20296;-60
2022/02/28 12:43:24;;;;;;;11.32;8.30;;;12.40;44.90;;;;;;5065296;28;20233;-57
2022/02/28 12:45:53;;;;;;;11.60;7.72;;;12.10;45.10;;;;;;5049564;28;21236;-59
2022/02/28 12:48:21;;;;;;;9.30;8.18;;;11.90;45.00;;;;;;5065789;28;20180;-66
2022/02/28 12:50:48;;;;;;;10.38;7.65;;;11.70;44.70;;;;;;5065749;28;20210;-60
2022/02/28 12:53:15;;;;;;;10.60;8.98;;;12.00;44.90;;;;;;5067153;28;20222;-63